sensor_id;sensor_type;location;lat;lon;timestamp;pressure;altitude;pressure_sealevel;temperature;humidity
75668;BME280;64266;48.798;44.756;2024-01-27T00:02:39;101782.66;;;3.19;75.37
75668;BME280;64266;48.798;44.756;2024-01-27T00:07:42;101780.00;;;3.28;74.58
75668;BME280;64266;48.798;44.756;2024-01-27T00:12:45;101765.91;;;3.29;72.96
75668;BME280;64266;48.798;44.756;2024-01-27T00:17:48;101771.28;;;3.38;73.01
75668;BME280;64266;48.798;44.756;2024-01-27T00:22:51;101772.97;;;3.29;74.03
75668;BME280;64266;48.798;44.756;2024-01-27T00:27:54;101746.06;;;3.00;73.17
75668;BME280;64266;48.798;44.756;2024-01-27T00:32:56;101731.28;;;2.99;74.59
75668;BME280;64266;48.798;44.756;2024-01-27T00:38:00;101752.34;;;3.16;73.16
75668;BME280;64266;48.798;44.756;2024-01-27T00:43:03;101771.84;;;3.32;73.48
75668;BME280;64266;48.798;44.756;2024-01-27T00:48:07;101736.78;;;3.05;73.48
75668;BME280;64266;48.798;44.756;2024-01-27T00:53:10;101767.00;;;3.00;73.63
75668;BME280;64266;48.798;44.756;2024-01-27T00:58:12;101777.31;;;3.11;74.44
75668;BME280;64266;48.798;44.756;2024-01-27T01:03:16;101781.03;;;3.08;74.75
75668;BME280;64266;48.798;44.756;2024-01-27T01:08:19;101780.72;;;3.21;73.85
75668;BME280;64266;48.798;44.756;2024-01-27T01:13:22;101759.03;;;3.01;72.83
75668;BME280;64266;48.798;44.756;2024-01-27T01:18:27;101772.75;;;3.13;72.79
75668;BME280;64266;48.798;44.756;2024-01-27T01:23:31;101762.94;;;3.15;70.97
75668;BME280;64266;48.798;44.756;2024-01-27T01:28:34;101756.63;;;3.08;72.27
75668;BME280;64266;48.798;44.756;2024-01-27T01:33:37;101795.22;;;3.15;72.70
75668;BME280;64266;48.798;44.756;2024-01-27T01:38:39;101777.59;;;3.08;72.31
75668;BME280;64266;48.798;44.756;2024-01-27T01:43:43;101785.22;;;3.01;73.27
75668;BME280;64266;48.798;44.756;2024-01-27T01:48:46;101785.22;;;3.01;74.20
75668;BME280;64266;48.798;44.756;2024-01-27T01:53:50;101769.13;;;2.87;73.24
75668;BME280;64266;48.798;44.756;2024-01-27T01:58:55;101787.59;;;2.95;74.54
75668;BME280;64266;48.798;44.756;2024-01-27T02:03:58;101782.47;;;2.93;74.81
75668;BME280;64266;48.798;44.756;2024-01-27T02:09:02;101805.91;;;3.04;73.75
75668;BME280;64266;48.798;44.756;2024-01-27T02:14:06;101781.59;;;3.02;73.03
75668;BME280;64266;48.798;44.756;2024-01-27T02:19:09;101804.78;;;3.07;72.95
75668;BME280;64266;48.798;44.756;2024-01-27T02:24:12;101806.41;;;3.08;73.64
75668;BME280;64266;48.798;44.756;2024-01-27T02:29:15;101791.03;;;2.95;72.16
75668;BME280;64266;48.798;44.756;2024-01-27T02:34:17;101811.53;;;3.00;72.87
75668;BME280;64266;48.798;44.756;2024-01-27T02:39:20;101797.50;;;2.91;72.12
75668;BME280;64266;48.798;44.756;2024-01-27T02:44:24;101805.00;;;2.77;71.53
75668;BME280;64266;48.798;44.756;2024-01-27T02:49:28;101814.66;;;2.66;73.49
75668;BME280;64266;48.798;44.756;2024-01-27T02:54:32;101798.28;;;2.64;72.72
75668;BME280;64266;48.798;44.756;2024-01-27T02:59:36;101820.56;;;2.78;72.61
75668;BME280;64266;48.798;44.756;2024-01-27T03:04:43;101773.72;;;2.65;72.70
75668;BME280;64266;48.798;44.756;2024-01-27T03:09:46;101791.66;;;2.60;74.05
75668;BME280;64266;48.798;44.756;2024-01-27T03:14:49;101797.53;;;2.82;73.65
75668;BME280;64266;48.798;44.756;2024-01-27T03:19:54;101797.25;;;2.85;71.37
75668;BME280;64266;48.798;44.756;2024-01-27T03:24:57;101792.59;;;2.59;71.95
75668;BME280;64266;48.798;44.756;2024-01-27T03:30:00;101808.56;;;2.76;73.25
75668;BME280;64266;48.798;44.756;2024-01-27T03:35:07;101806.91;;;2.84;71.80
75668;BME280;64266;48.798;44.756;2024-01-27T03:40:10;101800.72;;;2.76;71.32
75668;BME280;64266;48.798;44.756;2024-01-27T03:45:13;101801.97;;;2.62;71.43
75668;BME280;64266;48.798;44.756;2024-01-27T03:50:16;101813.16;;;2.54;72.30
75668;BME280;64266;48.798;44.756;2024-01-27T03:55:19;101829.53;;;2.56;74.96
75668;BME280;64266;48.798;44.756;2024-01-27T04:00:22;101811.59;;;2.71;72.73
75668;BME280;64266;48.798;44.756;2024-01-27T04:05:26;101824.97;;;2.78;72.42
75668;BME280;64266;48.798;44.756;2024-01-27T04:10:29;101793.31;;;2.52;71.31
75668;BME280;64266;48.798;44.756;2024-01-27T04:15:33;101838.06;;;2.78;72.50
75668;BME280;64266;48.798;44.756;2024-01-27T04:20:42;101818.75;;;2.98;73.42
75668;BME280;64266;48.798;44.756;2024-01-27T04:25:47;101816.59;;;2.55;70.89
75668;BME280;64266;48.798;44.756;2024-01-27T04:30:50;101834.09;;;2.64;71.66
75668;BME280;64266;48.798;44.756;2024-01-27T04:35:53;101838.34;;;2.74;72.44
75668;BME280;64266;48.798;44.756;2024-01-27T04:40:56;101828.97;;;2.82;70.88
75668;BME280;64266;48.798;44.756;2024-01-27T04:45:59;101812.72;;;2.68;72.05
75668;BME280;64266;48.798;44.756;2024-01-27T04:51:01;101852.25;;;2.75;69.94
75668;BME280;64266;48.798;44.756;2024-01-27T04:56:05;101838.22;;;2.47;71.15
75668;BME280;64266;48.798;44.756;2024-01-27T05:01:12;101856.56;;;2.57;70.21
75668;BME280;64266;48.798;44.756;2024-01-27T05:06:15;101872.66;;;2.62;71.64
75668;BME280;64266;48.798;44.756;2024-01-27T05:11:30;101860.84;;;2.58;70.61
75668;BME280;64266;48.798;44.756;2024-01-27T05:16:36;101885.63;;;2.63;69.44
75668;BME280;64266;48.798;44.756;2024-01-27T05:21:39;101886.16;;;2.38;69.30
75668;BME280;64266;48.798;44.756;2024-01-27T05:26:42;101812.88;;;1.90;71.31
75668;BME280;64266;48.798;44.756;2024-01-27T05:31:48;101892.34;;;2.37;70.74
75668;BME280;64266;48.798;44.756;2024-01-27T05:36:52;101879.41;;;2.26;71.42
75668;BME280;64266;48.798;44.756;2024-01-27T05:41:55;101914.13;;;2.47;72.74
75668;BME280;64266;48.798;44.756;2024-01-27T05:46:59;101928.91;;;2.48;72.18
75668;BME280;64266;48.798;44.756;2024-01-27T05:52:02;101923.38;;;2.51;72.40
75668;BME280;64266;48.798;44.756;2024-01-27T05:57:06;101926.16;;;2.69;71.81
75668;BME280;64266;48.798;44.756;2024-01-27T06:02:09;101923.13;;;2.73;69.39
75668;BME280;64266;48.798;44.756;2024-01-27T06:07:12;101938.28;;;2.80;68.11
75668;BME280;64266;48.798;44.756;2024-01-27T06:12:16;101939.78;;;2.53;68.62
75668;BME280;64266;48.798;44.756;2024-01-27T06:17:19;101935.22;;;2.36;70.53
75668;BME280;64266;48.798;44.756;2024-01-27T06:22:22;101922.47;;;2.03;71.60
75668;BME280;64266;48.798;44.756;2024-01-27T06:27:25;101954.03;;;2.11;72.71
75668;BME280;64266;48.798;44.756;2024-01-27T06:32:28;101970.31;;;2.24;72.72
75668;BME280;64266;48.798;44.756;2024-01-27T06:37:31;101961.63;;;2.24;70.56
75668;BME280;64266;48.798;44.756;2024-01-27T06:42:34;101950.34;;;2.23;72.66
75668;BME280;64266;48.798;44.756;2024-01-27T06:47:37;101928.72;;;2.21;71.43
75668;BME280;64266;48.798;44.756;2024-01-27T06:52:40;101911.84;;;2.04;72.03
75668;BME280;64266;48.798;44.756;2024-01-27T06:57:45;101976.31;;;2.64;73.30
75668;BME280;64266;48.798;44.756;2024-01-27T07:02:49;101957.78;;;2.37;70.97
75668;BME280;64266;48.798;44.756;2024-01-27T07:07:53;101960.97;;;2.41;70.96
75668;BME280;64266;48.798;44.756;2024-01-27T07:12:56;101973.50;;;2.28;72.82
75668;BME280;64266;48.798;44.756;2024-01-27T07:18:00;101938.06;;;2.14;72.41
75668;BME280;64266;48.798;44.756;2024-01-27T07:23:03;101938.91;;;2.24;72.48
75668;BME280;64266;48.798;44.756;2024-01-27T07:28:06;101928.91;;;2.48;73.18
75668;BME280;64266;48.798;44.756;2024-01-27T07:33:09;101979.50;;;2.97;69.74
75668;BME280;64266;48.798;44.756;2024-01-27T07:38:13;101963.38;;;2.72;70.06
75668;BME280;64266;48.798;44.756;2024-01-27T07:43:16;101980.88;;;2.82;71.74
75668;BME280;64266;48.798;44.756;2024-01-27T07:48:19;101978.81;;;2.76;70.50
75668;BME280;64266;48.798;44.756;2024-01-27T07:53:22;101931.94;;;2.63;70.15
75668;BME280;64266;48.798;44.756;2024-01-27T07:58:25;101938.00;;;2.63;70.04
75668;BME280;64266;48.798;44.756;2024-01-27T08:03:28;101975.38;;;2.85;69.16
75668;BME280;64266;48.798;44.756;2024-01-27T08:08:32;101924.34;;;2.50;69.05
75668;BME280;64266;48.798;44.756;2024-01-27T08:13:35;101946.84;;;3.01;68.49
75668;BME280;64266;48.798;44.756;2024-01-27T08:18:40;101898.28;;;2.78;68.19
75668;BME280;64266;48.798;44.756;2024-01-27T08:23:45;101882.56;;;2.87;67.21
75668;BME280;64266;48.798;44.756;2024-01-27T08:28:48;101968.44;;;3.41;65.85
75668;BME280;64266;48.798;44.756;2024-01-27T08:33:51;101938.97;;;3.01;64.26
75668;BME280;64266;48.798;44.756;2024-01-27T08:38:55;101972.03;;;3.21;64.86
75668;BME280;64266;48.798;44.756;2024-01-27T08:43:59;101957.59;;;2.98;64.33
75668;BME280;64266;48.798;44.756;2024-01-27T08:49:02;101937.72;;;3.05;65.61
75668;BME280;64266;48.798;44.756;2024-01-27T08:54:05;101963.22;;;3.32;63.78
75668;BME280;64266;48.798;44.756;2024-01-27T08:59:19;101975.75;;;3.38;65.24
75668;BME280;64266;48.798;44.756;2024-01-27T09:04:31;101917.97;;;3.20;63.39
75668;BME280;64266;48.798;44.756;2024-01-27T09:09:36;101901.88;;;2.96;64.26
75668;BME280;64266;48.798;44.756;2024-01-27T09:14:42;101976.97;;;3.43;65.53
75668;BME280;64266;48.798;44.756;2024-01-27T09:19:45;101952.59;;;3.23;63.58
75668;BME280;64266;48.798;44.756;2024-01-27T09:24:50;101959.47;;;3.34;64.29
75668;BME280;64266;48.798;44.756;2024-01-27T09:29:53;101953.13;;;3.27;62.38
75668;BME280;64266;48.798;44.756;2024-01-27T09:34:57;101948.03;;;3.35;63.95
75668;BME280;64266;48.798;44.756;2024-01-27T09:40:01;101926.03;;;3.55;64.88
75668;BME280;64266;48.798;44.756;2024-01-27T09:45:08;101935.19;;;3.78;64.30
75668;BME280;64266;48.798;44.756;2024-01-27T09:50:14;101913.09;;;3.81;63.06
75668;BME280;64266;48.798;44.756;2024-01-27T09:55:17;101947.63;;;4.04;60.46
75668;BME280;64266;48.798;44.756;2024-01-27T10:00:21;101929.75;;;3.90;62.44
75668;BME280;64266;48.798;44.756;2024-01-27T10:05:24;101936.97;;;3.88;61.88
75668;BME280;64266;48.798;44.756;2024-01-27T10:10:28;101933.50;;;3.87;64.45
75668;BME280;64266;48.798;44.756;2024-01-27T10:15:31;101958.97;;;4.04;64.04
75668;BME280;64266;48.798;44.756;2024-01-27T10:20:37;101945.84;;;4.04;64.52
75668;BME280;64266;48.798;44.756;2024-01-27T10:25:42;101962.22;;;4.16;62.99
75668;BME280;64266;48.798;44.756;2024-01-27T10:30:46;101959.41;;;4.00;65.10
75668;BME280;64266;48.798;44.756;2024-01-27T10:35:57;101963.97;;;4.25;66.02
75668;BME280;64266;48.798;44.756;2024-01-27T10:41:07;101956.31;;;4.14;65.26
75668;BME280;64266;48.798;44.756;2024-01-27T10:46:14;101958.06;;;4.23;63.54
75668;BME280;64266;48.798;44.756;2024-01-27T10:51:27;101932.22;;;3.91;65.23
75668;BME280;64266;48.798;44.756;2024-01-27T10:56:33;101963.72;;;4.18;66.71
75668;BME280;64266;48.798;44.756;2024-01-27T11:01:37;101921.81;;;4.09;64.44
75668;BME280;64266;48.798;44.756;2024-01-27T11:06:42;101947.16;;;3.91;64.20
75668;BME280;64266;48.798;44.756;2024-01-27T11:11:47;101955.72;;;3.93;65.87
75668;BME280;64266;48.798;44.756;2024-01-27T11:16:58;101954.97;;;4.00;65.57
75668;BME280;64266;48.798;44.756;2024-01-27T11:22:04;101888.59;;;3.63;65.22
75668;BME280;64266;48.798;44.756;2024-01-27T11:27:08;101971.44;;;4.47;65.87
75668;BME280;64266;48.798;44.756;2024-01-27T11:32:11;101936.09;;;4.24;64.68
75668;BME280;64266;48.798;44.756;2024-01-27T11:37:16;101985.47;;;4.38;65.31
75668;BME280;64266;48.798;44.756;2024-01-27T11:42:19;101995.75;;;4.22;64.49
75668;BME280;64266;48.798;44.756;2024-01-27T11:47:22;101983.50;;;4.13;64.47
75668;BME280;64266;48.798;44.756;2024-01-27T11:52:27;102002.06;;;4.38;63.44
75668;BME280;64266;48.798;44.756;2024-01-27T11:57:30;101980.19;;;4.20;62.87
75668;BME280;64266;48.798;44.756;2024-01-27T12:02:33;101995.22;;;4.18;61.92
75668;BME280;64266;48.798;44.756;2024-01-27T12:07:36;102029.09;;;4.21;63.35
75668;BME280;64266;48.798;44.756;2024-01-27T12:12:40;101990.75;;;4.01;63.30
75668;BME280;64266;48.798;44.756;2024-01-27T12:17:50;102000.31;;;3.93;64.23
75668;BME280;64266;48.798;44.756;2024-01-27T12:23:06;102009.03;;;3.93;65.21
75668;BME280;64266;48.798;44.756;2024-01-27T12:28:09;102041.16;;;4.05;63.14
75668;BME280;64266;48.798;44.756;2024-01-27T12:33:13;102053.97;;;4.17;62.68
75668;BME280;64266;48.798;44.756;2024-01-27T12:38:18;102053.44;;;4.14;62.85
75668;BME280;64266;48.798;44.756;2024-01-27T12:43:21;102062.97;;;4.15;63.97
75668;BME280;64266;48.798;44.756;2024-01-27T12:48:24;102044.47;;;4.07;62.59
75668;BME280;64266;48.798;44.756;2024-01-27T12:53:27;102029.34;;;4.18;63.87
75668;BME280;64266;48.798;44.756;2024-01-27T12:58:34;102060.78;;;4.37;62.37
75668;BME280;64266;48.798;44.756;2024-01-27T13:03:38;102053.13;;;4.17;62.46
75668;BME280;64266;48.798;44.756;2024-01-27T13:08:46;102044.75;;;4.04;63.26
75668;BME280;64266;48.798;44.756;2024-01-27T13:13:53;102039.41;;;3.96;62.58
75668;BME280;64266;48.798;44.756;2024-01-27T13:18:57;102057.47;;;3.99;61.97
75668;BME280;64266;48.798;44.756;2024-01-27T13:24:00;102069.31;;;4.12;62.71
75668;BME280;64266;48.798;44.756;2024-01-27T13:29:04;102059.91;;;4.19;60.84
75668;BME280;64266;48.798;44.756;2024-01-27T13:34:07;102074.81;;;4.19;61.38
75668;BME280;64266;48.798;44.756;2024-01-27T13:39:11;102077.38;;;3.92;61.06
75668;BME280;64266;48.798;44.756;2024-01-27T13:44:14;102081.13;;;3.79;62.32
75668;BME280;64266;48.798;44.756;2024-01-27T13:49:19;102086.13;;;3.63;62.04
75668;BME280;64266;48.798;44.756;2024-01-27T13:54:23;102111.09;;;3.77;61.66
75668;BME280;64266;48.798;44.756;2024-01-27T13:59:26;102102.97;;;3.70;63.21
75668;BME280;64266;48.798;44.756;2024-01-27T14:04:29;102119.13;;;3.66;61.66
75668;BME280;64266;48.798;44.756;2024-01-27T14:09:32;102088.22;;;3.31;62.03
75668;BME280;64266;48.798;44.756;2024-01-27T14:14:36;102079.94;;;3.26;63.20
75668;BME280;64266;48.798;44.756;2024-01-27T14:19:44;102115.28;;;3.41;63.31
75668;BME280;64266;48.798;44.756;2024-01-27T14:24:47;102136.09;;;3.52;64.12
75668;BME280;64266;48.798;44.756;2024-01-27T14:29:50;102144.25;;;3.59;63.33
75668;BME280;64266;48.798;44.756;2024-01-27T14:34:52;102146.31;;;3.74;63.62
75668;BME280;64266;48.798;44.756;2024-01-27T14:39:56;102120.91;;;3.56;63.62
75668;BME280;64266;48.798;44.756;2024-01-27T14:44:59;102115.69;;;3.65;61.12
75668;BME280;64266;48.798;44.756;2024-01-27T14:50:08;102115.13;;;3.52;61.66
75668;BME280;64266;48.798;44.756;2024-01-27T14:55:13;102157.38;;;3.59;61.44
75668;BME280;64266;48.798;44.756;2024-01-27T15:00:19;102138.66;;;2.95;61.06
75668;BME280;64266;48.798;44.756;2024-01-27T15:05:22;102157.38;;;2.90;63.08
75668;BME280;64266;48.798;44.756;2024-01-27T15:10:26;102158.81;;;3.04;62.28
75668;BME280;64266;48.798;44.756;2024-01-27T15:15:29;102171.06;;;3.03;61.92
75668;BME280;64266;48.798;44.756;2024-01-27T15:20:33;102183.47;;;3.01;61.57
75668;BME280;64266;48.798;44.756;2024-01-27T15:25:36;102189.53;;;3.02;61.60
75668;BME280;64266;48.798;44.756;2024-01-27T15:30:39;102155.69;;;2.80;62.52
75668;BME280;64266;48.798;44.756;2024-01-27T15:35:44;102184.19;;;2.73;61.67
75668;BME280;64266;48.798;44.756;2024-01-27T15:40:47;102170.38;;;2.41;63.03
75668;BME280;64266;48.798;44.756;2024-01-27T15:45:53;102140.28;;;2.26;62.46
75668;BME280;64266;48.798;44.756;2024-01-27T15:50:58;102184.88;;;2.45;63.41
75668;BME280;64266;48.798;44.756;2024-01-27T15:56:04;102203.91;;;2.47;62.58
75668;BME280;64266;48.798;44.756;2024-01-27T16:01:07;102166.72;;;2.02;62.73
75668;BME280;64266;48.798;44.756;2024-01-27T16:06:11;102201.91;;;1.98;62.28
75668;BME280;64266;48.798;44.756;2024-01-27T16:11:14;102166.66;;;1.60;62.58
75668;BME280;64266;48.798;44.756;2024-01-27T16:16:19;102208.28;;;1.52;64.07
75668;BME280;64266;48.798;44.756;2024-01-27T16:21:24;102177.44;;;1.24;62.08
75668;BME280;64266;48.798;44.756;2024-01-27T16:26:28;102210.69;;;1.33;63.66
75668;BME280;64266;48.798;44.756;2024-01-27T16:31:31;102180.19;;;1.12;64.57
75668;BME280;64266;48.798;44.756;2024-01-27T16:36:36;102215.94;;;1.11;62.71
75668;BME280;64266;48.798;44.756;2024-01-27T16:41:39;102220.81;;;1.16;62.71
75668;BME280;64266;48.798;44.756;2024-01-27T16:46:43;102217.25;;;1.05;62.59
75668;BME280;64266;48.798;44.756;2024-01-27T16:51:48;102197.56;;;1.01;60.74
75668;BME280;64266;48.798;44.756;2024-01-27T16:56:54;102212.53;;;0.88;59.66
75668;BME280;64266;48.798;44.756;2024-01-27T17:02:00;102217.38;;;0.93;58.48
75668;BME280;64266;48.798;44.756;2024-01-27T17:07:03;102215.84;;;0.90;57.44
75668;BME280;64266;48.798;44.756;2024-01-27T17:12:06;102246.81;;;0.73;56.94
75668;BME280;64266;48.798;44.756;2024-01-27T17:17:13;102253.81;;;0.72;58.80
75668;BME280;64266;48.798;44.756;2024-01-27T17:22:16;102164.75;;;0.09;58.53
75668;BME280;64266;48.798;44.756;2024-01-27T17:27:19;102202.09;;;0.20;58.80
75668;BME280;64266;48.798;44.756;2024-01-27T17:32:22;102217.91;;;0.30;58.85
75668;BME280;64266;48.798;44.756;2024-01-27T17:37:25;102252.88;;;0.27;57.33
75668;BME280;64266;48.798;44.756;2024-01-27T17:42:35;102278.75;;;0.30;58.88
75668;BME280;64266;48.798;44.756;2024-01-27T17:47:39;102285.81;;;0.17;58.79
75668;BME280;64266;48.798;44.756;2024-01-27T17:52:43;102252.38;;;-0.13;58.92
75668;BME280;64266;48.798;44.756;2024-01-27T17:57:46;102287.13;;;0.23;60.33
75668;BME280;64266;48.798;44.756;2024-01-27T18:02:49;102276.31;;;0.16;60.05
75668;BME280;64266;48.798;44.756;2024-01-27T18:07:52;102272.28;;;0.12;58.32
75668;BME280;64266;48.798;44.756;2024-01-27T18:12:55;102275.22;;;0.08;58.04
75668;BME280;64266;48.798;44.756;2024-01-27T18:17:59;102306.44;;;0.20;58.91
75668;BME280;64266;48.798;44.756;2024-01-27T18:23:04;102295.78;;;0.23;58.77
75668;BME280;64266;48.798;44.756;2024-01-27T18:28:07;102311.19;;;0.15;57.88
75668;BME280;64266;48.798;44.756;2024-01-27T18:33:10;102291.63;;;-0.03;57.79
75668;BME280;64266;48.798;44.756;2024-01-27T18:38:14;102281.31;;;-0.28;57.34
75668;BME280;64266;48.798;44.756;2024-01-27T18:43:17;102303.84;;;-0.04;57.93
75668;BME280;64266;48.798;44.756;2024-01-27T18:48:20;102298.78;;;-0.18;57.66
75668;BME280;64266;48.798;44.756;2024-01-27T18:53:25;102304.84;;;-0.17;57.63
75668;BME280;64266;48.798;44.756;2024-01-27T18:58:27;102282.81;;;-0.13;58.48
75668;BME280;64266;48.798;44.756;2024-01-27T19:03:34;102333.91;;;0.13;57.79
75668;BME280;64266;48.798;44.756;2024-01-27T19:08:38;102339.13;;;0.13;58.73
75668;BME280;64266;48.798;44.756;2024-01-27T19:13:42;102326.59;;;0.18;57.53
75668;BME280;64266;48.798;44.756;2024-01-27T19:18:45;102337.41;;;0.25;57.57
75668;BME280;64266;48.798;44.756;2024-01-27T19:23:49;102344.91;;;0.29;57.61
75668;BME280;64266;48.798;44.756;2024-01-27T19:28:52;102323.53;;;0.24;57.86
75668;BME280;64266;48.798;44.756;2024-01-27T19:33:55;102299.06;;;0.14;56.60
75668;BME280;64266;48.798;44.756;2024-01-27T19:38:57;102337.91;;;0.30;56.56
75668;BME280;64266;48.798;44.756;2024-01-27T19:44:00;102349.06;;;0.32;56.01
75668;BME280;64266;48.798;44.756;2024-01-27T19:49:04;102317.94;;;0.18;56.60
75668;BME280;64266;48.798;44.756;2024-01-27T19:54:07;102360.06;;;0.24;56.10
75668;BME280;64266;48.798;44.756;2024-01-27T19:59:10;102328.75;;;0.00;56.66
75668;BME280;64266;48.798;44.756;2024-01-27T20:04:13;102325.25;;;-0.11;56.31
75668;BME280;64266;48.798;44.756;2024-01-27T20:09:17;102316.41;;;-0.21;56.94
75668;BME280;64266;48.798;44.756;2024-01-27T20:14:22;102339.19;;;-0.36;56.65
75668;BME280;64266;48.798;44.756;2024-01-27T20:19:26;102358.03;;;-0.20;57.92
75668;BME280;64266;48.798;44.756;2024-01-27T20:24:30;102366.69;;;-0.19;57.15
75668;BME280;64266;48.798;44.756;2024-01-27T20:29:36;102320.84;;;-0.34;57.67
75668;BME280;64266;48.798;44.756;2024-01-27T20:34:39;102369.19;;;-0.30;56.27
75668;BME280;64266;48.798;44.756;2024-01-27T20:39:42;102365.06;;;-0.45;57.33
75668;BME280;64266;48.798;44.756;2024-01-27T20:44:46;102382.16;;;-0.54;56.48
75668;BME280;64266;48.798;44.756;2024-01-27T20:49:51;102303.94;;;-1.03;57.19
75668;BME280;64266;48.798;44.756;2024-01-27T20:54:54;102376.03;;;-0.78;55.93
75668;BME280;64266;48.798;44.756;2024-01-27T20:59:57;102361.31;;;-0.92;57.07
75668;BME280;64266;48.798;44.756;2024-01-27T21:05:01;102402.56;;;-0.86;55.86
75668;BME280;64266;48.798;44.756;2024-01-27T21:10:05;102403.16;;;-1.20;57.35
75668;BME280;64266;48.798;44.756;2024-01-27T21:15:09;102402.28;;;-1.33;57.56
75668;BME280;64266;48.798;44.756;2024-01-27T21:20:13;102389.81;;;-1.28;57.91
75668;BME280;64266;48.798;44.756;2024-01-27T21:25:17;102412.63;;;-1.19;57.07
75668;BME280;64266;48.798;44.756;2024-01-27T21:30:19;102390.56;;;-1.26;57.01
75668;BME280;64266;48.798;44.756;2024-01-27T21:35:23;102414.97;;;-1.02;58.08
75668;BME280;64266;48.798;44.756;2024-01-27T21:40:27;102367.16;;;-1.26;56.97
75668;BME280;64266;48.798;44.756;2024-01-27T21:45:30;102409.38;;;-1.23;56.94
75668;BME280;64266;48.798;44.756;2024-01-27T21:50:34;102360.56;;;-1.71;57.16
75668;BME280;64266;48.798;44.756;2024-01-27T21:55:37;102403.63;;;-1.40;57.93
75668;BME280;64266;48.798;44.756;2024-01-27T22:00:40;102419.34;;;-1.42;57.16
75668;BME280;64266;48.798;44.756;2024-01-27T22:05:44;102419.38;;;-1.29;58.25
75668;BME280;64266;48.798;44.756;2024-01-27T22:10:47;102384.31;;;-1.24;58.18
75668;BME280;64266;48.798;44.756;2024-01-27T22:15:52;102390.56;;;-1.26;55.88
75668;BME280;64266;48.798;44.756;2024-01-27T22:20:58;102381.00;;;-1.13;57.95
75668;BME280;64266;48.798;44.756;2024-01-27T22:26:01;102424.66;;;-0.79;55.90
75668;BME280;64266;48.798;44.756;2024-01-27T22:31:04;102419.00;;;-0.98;55.34
75668;BME280;64266;48.798;44.756;2024-01-27T22:36:08;102417.31;;;-1.24;56.15
75668;BME280;64266;48.798;44.756;2024-01-27T22:41:15;102441.53;;;-0.97;55.83
75668;BME280;64266;48.798;44.756;2024-01-27T22:46:19;102416.78;;;-1.17;56.54
75668;BME280;64266;48.798;44.756;2024-01-27T22:51:21;102430.53;;;-1.27;54.80
75668;BME280;64266;48.798;44.756;2024-01-27T22:56:24;102460.47;;;-1.34;56.50
75668;BME280;64266;48.798;44.756;2024-01-27T23:01:27;102438.38;;;-1.68;56.77
75668;BME280;64266;48.798;44.756;2024-01-27T23:06:31;102457.09;;;-1.63;57.36
75668;BME280;64266;48.798;44.756;2024-01-27T23:11:36;102446.03;;;-1.52;57.63
75668;BME280;64266;48.798;44.756;2024-01-27T23:16:39;102432.63;;;-1.46;56.20
75668;BME280;64266;48.798;44.756;2024-01-27T23:21:42;102455.22;;;-1.20;56.75
75668;BME280;64266;48.798;44.756;2024-01-27T23:26:45;102352.31;;;-1.78;56.45
75668;BME280;64266;48.798;44.756;2024-01-27T23:31:49;102463.25;;;-1.11;57.25
75668;BME280;64266;48.798;44.756;2024-01-27T23:36:52;102462.63;;;-1.14;56.98
75668;BME280;64266;48.798;44.756;2024-01-27T23:41:55;102456.19;;;-1.08;57.51
75668;BME280;64266;48.798;44.756;2024-01-27T23:46:58;102413.16;;;-1.27;56.51
75668;BME280;64266;48.798;44.756;2024-01-27T23:52:01;102468.31;;;-0.82;56.65
75668;BME280;64266;48.798;44.756;2024-01-27T23:57:05;102385.00;;;-1.34;55.97
